Hovedside
METAR-TAF:

METAR-TAF

Lufthavner :

Mora–Siljan

Mora, Sverige

breddegrad: 60-57-31N, lengdegrad: 14-30-40E, høyde over havet: 193 m

Gjeldene værobservasjon

Denne rapporten ble laget for 24 minutter siden, klokken 11:20 UTC
Vind 9 kt fra Nordvest, skiftende mellom Vest og Nord-nordvest
Temperatur 18°C
Luftfuktighet 45%
Trykk 1007 hPa
Sikt 10 km eller mer

METAR: ESKM 191120Z AUTO 31009KT 260V340 9999 BKN068/// 18/06 Q1007

Tid: 13:44 (11:44 UTC)


TAF: fraværende

Værobservasjoner og værvarsel for over 4000 flyplasser (METAR- og TAF-rapporter).

Tilgjengelige stasjoner er representert av de røde og gule prikkene på kartet.

Hold musepekeren over prikken for å se navnet på stasjonen.

Klikk så for å se værobservasjoner og -varsler.

For å forandre kartet kan du klikke på den grønne knappen med svart kryss for å zoome inn, på den grønne knappen med strek for å zoome ut, eller på de grønne pilene for å se tilstøtende kart.


METAR-TAF: